Latest Weather Observations for Goulburn Airport

IDN60801

Issued at 9:32 pm EST Sunday 23 April 2017 (issued every 30 minutes, with the page automatically refreshed every 10 minutes)

About weather observations | Map of weather stations | Latest weather observations for NSW | Other Formats
Station Details ID: 070330 Name: GOULBURN AIRPORT AWS Lat: -34.81 Lon: 149.73 Height: 640.0 m
Data from the previous 72 hours. | See also: Recent months at Goulburn Airport
Date/Time
EST
Temp
°C
App
Temp
°C
Dew
Point
°C
Rel
Hum
%
Delta-T
°C
Wind Press
QNH
hPa
Press
MSL
hPa
Rain since
9am
mm
Dir  Spd
km/h
Gust
km/h
Spd
kts
Gust
kts
23/09:30pm 11.8 12.0 10.4 91 0.7 CALM 0 0 0 0 1025.5 1024.7 0.0
23/09:25pm 12.3 12.6 11.0 92 0.7 CALM 0 0 0 0 1025.5 1024.7 0.0
23/09:00pm 13.3 14.1 12.4 94 0.5 CALM 0 0 0 0 1025.4 1024.6 0.0
23/08:30pm 12.6 12.9 10.8 89 1.0 CALM 0 0 0 0 1025.2 1024.4 0.0
23/08:01pm 11.5 11.5 9.9 90 0.8 CALM 0 0 0 0 1025.1 1024.3 0.0
23/08:00pm 11.5 11.5 9.9 90 0.8 CALM 0 0 0 0 1025.0 1024.2 0.0
23/07:30pm 13.0 12.0 10.4 84 1.4 N 6 9 3 5 1024.5 1023.8 0.0
23/07:00pm 14.1 13.2 11.3 83 1.5 E 7 11 4 6 1024.2 1023.4 0.0
23/06:30pm 14.7 13.9 10.9 78 2.1 ESE 6 9 3 5 1023.7 1022.9 0.0
23/06:00pm 16.0 15.1 10.5 70 3.0 - 6 11 3 6 1023.4 1022.6 0.0
23/05:30pm 18.1 15.3 11.4 65 3.8 E 17 24 9 13 1022.9 1022.1 0.0
23/05:00pm 19.5 18.3 9.4 52 5.5 N 6 7 3 4 1022.6 1021.8 0.0
23/04:30pm 20.2 18.2 8.8 48 6.2 NNE 9 13 5 7 1022.4 1021.6 0.0
23/04:00pm 21.0 20.3 8.6 45 6.7 ESE 2 7 1 4 1022.4 1021.6 0.0
23/03:30pm 19.6 19.1 8.0 47 6.2 CALM 0 0 0 0 1022.6 1021.8 0.0
23/03:00pm 20.1 18.3 7.8 45 6.5 SE 7 9 4 5 1022.6 1021.8 0.0
23/02:30pm 21.2 18.3 8.1 43 7.1 SSE 13 19 7 10 1022.6 1021.8 0.0
23/02:00pm 20.6 18.8 7.9 44 6.8 SW 7 13 4 7 1022.7 1021.9 0.0
23/01:30pm 20.5 18.5 8.8 47 6.4 SSE 9 15 5 8 1022.9 1022.1 0.0
23/01:00pm 19.1 17.3 9.3 53 5.3 SSW 9 13 5 7 1023.4 1022.6 0.0
23/12:30pm 20.9 19.7 9.5 48 6.3 S 6 15 3 8 1023.7 1022.9 0.0
23/12:00pm 20.9 19.7 10.4 51 5.9 S 7 15 4 8 1024.1 1023.3 0.0
23/11:30am 18.9 16.5 8.8 52 5.4 SSW 11 19 6 10 1024.6 1023.9 0.0
23/11:00am 19.2 17.1 9.7 54 5.2 SSW 11 19 6 10 1025.1 1024.3 0.0
23/10:30am 18.4 17.5 10.8 61 4.2 NE 6 11 3 6 1025.5 1024.7 0.0
23/10:00am 16.7 15.7 10.3 66 3.5 S 6 11 3 6 1025.7 1024.9 0.0
23/09:30am 15.5 14.5 10.3 71 2.8 N 6 11 3 6 1025.7 1024.9 0.0
23/09:00am 12.4 12.2 10.5 88 1.0 E 2 7 1 4 1025.8 1025.1 0.0
23/08:30am 10.6 10.8 10.4 99 0.1 CALM 0 0 0 0 1025.7 1024.9 0.0
23/08:00am 8.3 7.9 8.2 99 0.0 CALM 0 0 0 0 1025.7 1024.9 0.0
23/07:46am 7.0 6.3 6.9 99 0.0 CALM 0 0 0 0 1025.7 1024.9 0.0
23/07:42am 6.7 5.9 6.6 99 0.0 CALM 0 0 0 0 1025.7 1024.9 0.0
23/07:30am 5.6 4.6 5.5 99 0.0 CALM 0 0 0 0 1025.6 1024.8 0.0
23/07:06am 4.1 2.8 4.0 99 0.0 CALM 0 0 0 0 1025.4 1024.6 0.0
23/07:00am 3.6 2.2 3.5 99 0.0 CALM 0 0 0 0 1025.3 1024.5 0.0
23/06:39am 3.4 2.0 3.3 99 0.0 CALM 0 0 0 0 1025.1 1024.3 0.0
23/06:30am 3.4 2.0 3.3 99 0.0 CALM 0 0 0 0 1025.0 1024.2 0.0
23/06:00am 3.7 2.3 3.6 99 0.0 CALM 0 0 0 0 1024.7 1024.0 0.0
23/05:30am 4.2 2.9 4.1 99 0.0 CALM 0 0 0 0 1024.6 1023.9 0.0
23/05:00am 4.3 3.0 4.2 99 0.0 CALM 0 0 0 0 1024.5 1023.8 0.0
23/04:30am 5.2 4.1 5.1 99 0.0 CALM 0 0 0 0 1024.3 1023.5 0.0
23/04:00am 5.1 4.0 5.0 99 0.0 CALM 0 0 0 0 1024.1 1023.3 0.0
23/03:30am 5.7 4.7 5.6 99 0.0 CALM 0 0 0 0 1024.2 1023.4 0.0
23/03:00am 5.3 3.1 5.2 99 0.0 ESE 6 9 3 5 1024.3 1023.5 0.0
23/02:30am 5.1 3.2 4.7 97 0.2 S 4 9 2 5 1024.3 1023.5 0.0
23/02:00am 6.0 5.0 5.6 97 0.2 CALM 0 0 0 0 1024.4 1023.6 0.0
23/01:42am 6.9 6.1 6.5 97 0.2 CALM 0 0 0 0 1024.5 1023.8 0.0
23/01:30am 6.8 5.9 6.2 96 0.3 CALM 0 0 0 0 1024.6 1023.9 0.0
23/01:08am 6.5 5.5 5.6 94 0.4 CALM 0 0 0 0 1024.7 1024.0 0.0
23/01:07am 6.6 5.6 5.7 94 0.4 CALM 0 0 0 0 1024.7 1024.0 0.0
23/01:00am 6.6 5.6 5.4 92 0.5 CALM 0 0 0 0 1024.7 1024.0 0.0
23/12:38am 7.5 6.8 7.1 97 0.2 CALM 0 0 0 0 1024.9 1024.1 0.0
23/12:30am 7.8 7.0 6.7 93 0.5 CALM 0 0 0 0 1024.9 1024.1 0.0
23/12:00am 8.5 7.8 7.0 90 0.7 CALM 0 0 0 0 1025.1 1024.3 0.0
 
Date/Time
EST
Temp
°C
App
Temp
°C
Dew
Point
°C
Rel
Hum
%
Delta-T
°C
Wind Press
QNH
hPa
Press
MSL
hPa
Rain since
9am
mm
Dir  Spd
km/h
Gust
km/h
Spd
kts
Gust
kts
22/11:30pm 10.1 8.7 8.9 92 0.6 S 6 7 3 4 1025.2 1024.4 0.0
22/11:00pm 10.3 9.4 9.1 92 0.6 SSW 4 9 2 5 1025.4 1024.6 0.0
22/10:30pm 11.3 10.1 9.6 89 0.9 SSW 6 7 3 4 1025.4 1024.6 0.0
22/10:00pm 11.7 11.3 9.8 88 1.0 ESE 2 7 1 4 1025.4 1024.6 0.0
22/09:30pm 12.0 11.6 9.9 87 1.1 ESE 2 6 1 3 1025.3 1024.5 0.0
22/09:00pm 11.9 10.8 9.8 87 1.1 SW 6 9 3 5 1025.2 1024.4 0.0
22/08:30pm 12.2 10.9 10.1 87 1.1 SW 7 9 4 5 1025.2 1024.4 0.0
22/08:00pm 12.5 11.1 9.5 82 1.6 SSW 7 9 4 5 1025.1 1024.3 0.0
22/07:30pm 13.9 13.5 9.9 77 2.1 NNE 2 7 1 4 1025.0 1024.2 0.0
22/07:00pm 14.9 14.1 9.7 71 2.8 NE 4 9 2 5 1024.7 1024.0 0.0
22/06:30pm 14.7 13.3 8.9 68 3.1 ENE 6 9 3 5 1024.6 1023.9 0.0
22/06:00pm 16.0 13.8 9.4 65 3.5 NNE 11 15 6 8 1024.3 1023.5 0.0
22/05:30pm 17.1 14.9 9.5 61 4.1 NE 11 13 6 7 1024.1 1023.3 0.0
22/05:00pm 17.8 15.7 9.7 59 4.4 NE 11 15 6 8 1024.1 1023.3 0.0
22/04:30pm 18.7 18.2 9.2 54 5.1 NW 2 11 1 6 1024.0 1023.2 0.0
22/04:00pm 19.5 18.4 8.5 49 5.9 WNW 4 7 2 4 1023.9 1023.1 0.0
22/03:30pm 19.6 17.7 9.2 51 5.7 SW 9 11 5 6 1023.8 1023.0 0.0
22/03:00pm 19.5 17.6 9.1 51 5.6 SW 9 11 5 6 1023.8 1023.0 0.0
22/02:30pm 19.5 17.7 7.9 47 6.2 WNW 7 9 4 5 1023.9 1023.1 0.0
22/02:00pm 19.8 18.1 8.5 48 6.1 WNW 7 11 4 6 1023.9 1023.1 0.0
22/01:30pm 19.6 18.2 8.9 50 5.8 NW 6 13 3 7 1024.1 1023.3 0.0
22/01:00pm 19.1 16.9 9.3 53 5.3 WSW 11 13 6 7 1024.4 1023.6 0.0
22/12:30pm 19.6 18.0 8.6 49 5.9 W 7 13 4 7 1024.9 1024.1 0.0
22/12:00pm 19.8 17.4 8.8 49 5.9 SSE 11 17 6 9 1025.4 1024.6 0.0
22/11:30am 19.4 17.0 8.7 50 5.8 SSW 11 17 6 9 1025.9 1025.2 0.0
22/11:00am 18.3 14.6 9.6 57 4.7 SSW 19 24 10 13 1026.2 1025.5 0.0
22/10:30am 17.5 14.6 10.9 65 3.7 SW 17 22 9 12 1026.8 1026.0 0.0
22/10:00am 18.1 16.7 12.3 69 3.3 SSW 11 17 6 9 1027.1 1026.3 0.0
22/09:30am 16.4 15.4 13.3 82 1.8 S 11 13 6 7 1027.2 1026.5 0.0
22/09:00am 15.0 14.7 12.7 86 1.3 SW 6 9 3 5 1027.3 1026.6 0.0
22/08:30am 14.3 13.9 12.3 88 1.1 NNW 6 7 3 4 1027.2 1026.5 0.0
22/08:00am 13.6 13.7 12.7 94 0.5 N 4 6 2 3 1027.2 1026.5 0.0
22/07:30am 12.7 12.2 12.2 97 0.3 N 6 7 3 4 1026.7 1025.9 0.0
22/07:00am 12.5 11.1 12.2 98 0.2 NE 11 20 6 11 1026.1 1025.4 0.0
22/06:30am 12.5 13.0 11.7 95 0.4 CALM 0 0 0 0 1025.8 1025.1 0.0
22/06:00am 12.6 12.9 12.1 97 0.3 N 2 9 1 5 1025.9 1025.2 0.0
22/05:30am 12.2 11.5 11.9 98 0.2 SSE 7 13 4 7 1025.7 1024.9 0.0
22/05:00am 12.0 11.3 11.5 97 0.3 N 6 7 3 4 1025.7 1024.9 0.0
22/04:30am 12.2 12.0 11.9 98 0.2 E 4 6 2 3 1025.2 1024.4 0.0
22/04:00am 12.0 10.4 11.5 97 0.3 S 11 15 6 8 1025.2 1024.4 0.0
22/03:30am 12.1 11.3 11.6 97 0.3 SW 7 9 4 5 1025.5 1024.7 0.0
22/03:00am 11.9 11.9 11.3 96 0.3 SSW 2 7 1 4 1025.8 1025.1 0.0
22/02:30am 12.1 12.6 11.5 96 0.3 CALM 0 0 0 0 1025.9 1025.2 0.0
22/02:00am 11.9 11.5 11.1 95 0.4 SSW 4 6 2 3 1026.1 1025.4 0.0
22/01:30am 12.1 12.5 11.2 94 0.5 CALM 0 0 0 0 1026.2 1025.5 0.0
22/01:00am 12.1 11.3 11.2 94 0.5 SW 6 7 3 4 1026.3 1025.6 0.0
22/12:30am 12.3 12.7 11.2 93 0.6 CALM 0 0 0 0 1026.7 1025.9 0.0
22/12:00am 12.1 11.0 10.8 92 0.7 WSW 7 9 4 5 1026.6 1025.8 0.0
 
Date/Time
EST
Temp
°C
App
Temp
°C
Dew
Point
°C
Rel
Hum
%
Delta-T
°C
Wind Press
QNH
hPa
Press
MSL
hPa
Rain since
9am
mm
Dir  Spd
km/h
Gust
km/h
Spd
kts
Gust
kts
21/11:30pm 12.6 11.8 11.2 91 0.8 WNW 6 9 3 5 1026.4 1025.7 0.0
21/11:00pm 13.0 12.0 11.1 88 1.0 WNW 7 9 4 5 1026.8 1026.0 0.0
21/10:30pm 14.1 14.7 11.8 86 1.3 CALM 0 2 0 1 1026.6 1025.8 0.0
21/10:00pm 14.3 13.8 12.0 86 1.3 NNW 6 9 3 5 1026.4 1025.7 0.0
21/09:30pm 14.7 13.6 11.8 83 1.6 NE 9 13 5 7 1026.6 1025.8 0.0
21/09:00pm 14.6 13.4 11.7 83 1.6 NNE 9 13 5 7 1026.4 1025.7 0.0
21/08:30pm 14.3 13.4 11.3 82 1.7 NNE 7 9 4 5 1026.3 1025.6 0.0
21/08:00pm 14.2 13.3 11.4 83 1.5 NNE 7 9 4 5 1026.3 1025.6 0.0
21/07:30pm 14.4 13.4 11.0 80 1.9 NNE 7 9 4 5 1026.2 1025.5 0.0
21/07:00pm 14.9 14.1 11.1 78 2.1 N 6 9 3 5 1026.1 1025.4 0.0
21/06:30pm 15.8 14.1 11.2 74 2.5 NE 11 13 6 7 1026.0 1025.3 0.0
21/06:00pm 16.3 14.4 10.6 69 3.1 NE 11 15 6 8 1025.8 1025.1 0.0
21/05:30pm 17.2 15.4 10.8 66 3.5 NE 11 15 6 8 1025.8 1025.1 0.0
21/05:00pm 18.2 17.1 10.6 61 4.2 NE 7 11 4 6 1025.7 1024.9 0.0
21/04:30pm 18.8 18.6 10.4 58 4.7 WNW 2 7 1 4 1025.5 1024.7 0.0
21/04:00pm 18.6 17.4 9.4 55 5.0 WSW 6 9 3 5 1025.6 1024.8 0.0
21/03:30pm 18.9 17.6 9.9 56 4.9 NNE 7 9 4 5 1025.8 1025.1 0.0
21/03:00pm 19.2 17.1 9.9 55 5.1 NE 11 17 6 9 1025.7 1024.9 0.0
21/02:30pm 19.6 17.9 9.8 53 5.4 NE 9 13 5 7 1025.7 1024.9 0.0
21/02:00pm 19.4 17.2 9.3 52 5.5 NNE 11 17 6 9 1025.9 1025.2 0.0
21/01:30pm 20.2 18.2 8.8 48 6.2 N 9 19 5 10 1026.0 1025.3 0.0
21/01:00pm 20.2 18.5 8.2 46 6.4 ENE 7 13 4 7 1026.1 1025.4 0.0
21/12:30pm 19.6 16.9 8.9 50 5.8 NNE 13 17 7 9 1026.6 1025.8 0.0
21/12:00pm 19.2 16.9 7.6 47 6.1 NE 9 17 5 9 1026.9 1026.1 0.0
21/11:30am 18.3 15.4 8.3 52 5.3 NE 13 17 7 9 1027.5 1026.8 0.0
21/11:00am 18.5 16.5 8.5 52 5.3 NE 9 17 5 9 1027.9 1027.2 0.0
21/10:30am 17.7 16.6 10.1 61 4.2 NE 6 9 3 5 1028.1 1027.4 0.0
21/10:00am 16.0 15.3 9.9 67 3.3 NE 4 11 2 6 1028.7 1028.0 0.0
21/09:30am 13.2 13.7 11.6 90 0.9 CALM 0 0 0 0 1029.0 1028.3 0.0
21/09:00am 10.3 10.4 10.1 99 0.1 CALM 0 0 0 0 1029.0 1028.3 0.2
21/08:30am 9.4 9.3 9.3 99 0.1 CALM 0 0 0 0 1028.9 1028.2 0.2
21/08:00am 8.0 7.5 7.9 99 0.0 CALM 0 0 0 0 1028.8 1028.1 0.2
21/07:44am 7.5 6.5 7.4 99 0.0 WSW 2 6 1 3 1028.7 1028.0 0.2
21/07:30am 7.4 6.8 7.3 99 0.0 CALM 0 0 0 0 1028.6 1027.9 0.2
21/07:24am 7.6 7.0 7.5 99 0.0 CALM 0 0 0 0 1028.5 1027.7 0.2
21/07:00am 5.9 4.9 5.8 99 0.0 CALM 0 0 0 0 1028.3 1027.5 0.2
21/06:30am 4.8 3.6 4.7 99 0.0 CALM 0 6 0 3 1027.9 1027.2 0.2
21/06:00am 5.0 3.5 4.9 99 0.0 SE 2 9 1 5 1027.6 1026.9 0.2
21/05:30am 4.9 2.6 4.8 99 0.0 SW 6 7 3 4 1027.3 1026.6 0.2
21/05:00am 5.0 3.9 4.9 99 0.0 CALM 0 0 0 0 1027.2 1026.5 0.2
21/04:30am 4.9 3.7 4.8 99 0.0 CALM 0 0 0 0 1027.0 1026.2 0.2
21/04:00am 5.0 3.8 4.7 98 0.1 CALM 0 0 0 0 1027.0 1026.2 0.2
21/03:30am 5.1 4.0 5.0 99 0.0 CALM 0 0 0 0 1027.0 1026.2 0.2
21/03:00am 5.8 4.4 5.7 99 0.0 WSW 2 6 1 3 1027.0 1026.2 0.2
21/02:30am 5.7 3.5 5.4 98 0.1 SE 6 7 3 4 1027.2 1026.5 0.2
21/02:09am 5.7 4.6 5.1 96 0.3 CALM 0 0 0 0 1027.3 1026.6 0.2
21/02:00am 6.9 6.1 6.6 98 0.1 CALM 0 0 0 0 1027.4 1026.7 0.2
21/01:34am 7.0 6.2 6.6 97 0.2 CALM 0 0 0 0 1027.4 1026.7 0.2
21/01:30am 7.6 7.0 7.2 97 0.2 CALM 0 0 0 0 1027.4 1026.7 0.2
21/01:00am 7.8 7.2 7.4 97 0.2 CALM 0 0 0 0 1027.7 1027.0 0.2
21/12:30am 7.7 6.9 6.5 92 0.6 CALM 0 0 0 0 1027.8 1027.1 0.2
21/12:00am 9.3 8.1 7.9 91 0.7 NE 4 7 2 4 1028.0 1027.3 0.2
 
Date/Time
EST
Temp
°C
App
Temp
°C
Dew
Point
°C
Rel
Hum
%
Delta-T
°C
Wind Press
QNH
hPa
Press
MSL
hPa
Rain since
9am
mm
Dir  Spd
km/h
Gust
km/h
Spd
kts
Gust
kts
20/11:30pm 12.0 10.8 10.2 89 1.0 ENE 7 9 4 5 1028.3 1027.5 0.2
20/11:00pm 12.5 11.5 10.9 90 0.9 E 7 11 4 6 1028.5 1027.7 0.2
20/10:30pm 11.9 11.1 9.5 85 1.3 SW 4 7 2 4 1028.7 1028.0 0.2
20/10:00pm 13.3 10.8 11.0 86 1.2 NNE 15 20 8 11 1028.9 1028.2 0.2

Other Formats:

Comma delimited format used in spreadsheet applications
http://www.bom.gov.au/fwo/IDN60801/IDN60801.95716.axf

JavaScript Object Notation format (JSON) in row-major order
http://www.bom.gov.au/fwo/IDN60801/IDN60801.95716.json